Time;durP1;ratioP1;P1;durP2;ratioP2;P2;SDS_P1;SDS_P2;PMS_P1;PMS_P2;Temp;Humidity;BMP_temperature;BMP_pressure;BME280_temperature;BME280_humidity;BME280_pressure;Samples;Min_cycle;Max_cycle;Signal;HPM_P1;HPM_P2
2022/12/19 00:01:14;;;;;;;44.40;24.50;;;;;;;-0.93;90.10;96314.69;4936893;28;20766;-84
2022/12/19 00:03:40;;;;;;;39.00;19.90;;;;;;;-0.87;90.59;96313.63;4962363;28;20687;-81
2022/12/19 00:06:05;;;;;;;39.00;21.87;;;;;;;-0.93;90.50;96321.50;4959859;28;20231;-83
2022/12/19 00:08:31;;;;;;;36.10;19.30;;;;;;;-0.90;91.18;96316.28;4961421;28;20196;-83
2022/12/19 00:10:58;;;;;;;36.20;18.53;;;;;;;-0.84;92.17;96320.31;4939214;28;20286;-84
2022/12/19 00:13:24;;;;;;;32.43;18.00;;;;;;;-0.77;91.96;96321.75;4961767;28;20228;-83
2022/12/19 00:15:50;;;;;;;30.60;16.47;;;;;;;-0.67;91.70;96313.69;4962129;28;20218;-83
2022/12/19 00:18:15;;;;;;;35.43;17.90;;;;;;;-0.67;91.98;96303.47;4964900;28;20229;-83
2022/12/19 00:20:40;;;;;;;29.97;16.83;;;;;;;-0.54;91.96;96301.25;4937227;28;20203;-83
2022/12/19 00:23:06;;;;;;;29.50;16.27;;;;;;;-0.53;92.13;96302.94;4979494;28;20206;-83
2022/12/19 00:25:32;;;;;;;29.30;15.30;;;;;;;-0.42;91.73;96297.38;4942339;28;20725;-82
2022/12/19 00:27:57;;;;;;;25.67;14.73;;;;;;;-0.37;91.99;96287.81;4958837;28;20200;-83
2022/12/19 00:30:22;;;;;;;29.80;14.33;;;;;;;-0.33;92.02;96287.63;4960315;28;20552;-83
2022/12/19 00:32:47;;;;;;;24.57;13.87;;;;;;;-0.25;92.51;96289.03;4959667;28;20194;-83
2022/12/19 00:35:13;;;;;;;25.87;14.17;;;;;;;-0.21;92.44;96280.34;4959154;28;20704;-82
2022/12/19 00:37:38;;;;;;;26.20;13.67;;;;;;;-0.12;92.35;96285.06;4959738;28;20568;-84
2022/12/19 00:40:05;;;;;;;23.93;12.90;;;;;;;-0.05;92.44;96281.34;4979403;28;20228;-83
2022/12/19 00:42:30;;;;;;;22.73;12.60;;;;;;;0.03;91.65;96279.31;4959971;28;20234;-83
2022/12/19 00:44:56;;;;;;;24.30;12.33;;;;;;;0.15;91.81;96281.31;4958694;28;20184;-82
2022/12/19 00:47:21;;;;;;;22.33;12.20;;;;;;;0.20;91.38;96281.97;4976608;28;20191;-82
2022/12/19 00:49:49;;;;;;;19.93;11.57;;;;;;;0.22;91.24;96275.06;4976835;28;20192;-83
2022/12/19 00:52:14;;;;;;;20.67;11.73;;;;;;;0.31;91.28;96278.09;4932956;28;20196;-83
2022/12/19 00:54:40;;;;;;;22.57;11.93;;;;;;;0.30;90.72;96267.06;4958694;28;20199;-82
2022/12/19 00:57:05;;;;;;;23.00;12.80;;;;;;;0.35;91.26;96271.94;4959883;28;20222;-82
2022/12/19 00:59:30;;;;;;;18.53;11.77;;;;;;;0.37;91.42;96273.56;4959355;28;20559;-82
2022/12/19 01:01:56;;;;;;;18.37;11.27;;;;;;;0.44;91.80;96274.09;4959197;28;20227;-82
2022/12/19 01:04:21;;;;;;;19.83;9.93;;;;;;;0.53;91.63;96276.25;4934186;29;20300;-82
2022/12/19 01:06:46;;;;;;;20.40;11.70;;;;;;;0.54;91.58;96270.25;4957706;28;20211;-82
2022/12/19 01:09:12;;;;;;;19.50;11.40;;;;;;;0.57;90.98;96270.09;4978418;28;20184;-83
2022/12/19 01:14:22;;;;;;;18.20;10.57;;;;;;;0.67;90.97;96273.06;4981230;28;20191;-82
2022/12/19 01:16:47;;;;;;;18.60;10.77;;;;;;;0.68;90.87;96270.44;4961394;28;20276;-82
2022/12/19 01:19:13;;;;;;;19.43;10.10;;;;;;;0.72;91.06;96260.91;4980789;28;20299;-83
2022/12/19 01:21:38;;;;;;;15.80;9.70;;;;;;;0.75;90.70;96263.31;4980761;28;20192;-84
2022/12/19 01:24:04;;;;;;;14.97;8.47;;;;;;;0.76;90.48;96270.91;4935376;28;20733;-83
2022/12/19 01:26:29;;;;;;;17.47;9.90;;;;;;;0.78;91.03;96273.41;4960478;28;20219;-82
2022/12/19 01:28:54;;;;;;;18.00;9.83;;;;;;;0.81;90.93;96273.28;4961318;28;20208;-82
2022/12/19 01:31:20;;;;;;;15.67;9.27;;;;;;;0.84;90.97;96275.69;4958992;28;20654;-84
2022/12/19 01:33:46;;;;;;;22.83;10.17;;;;;;;0.84;90.87;96268.00;4961848;28;20231;-84
2022/12/19 01:36:11;;;;;;;18.30;10.33;;;;;;;0.82;90.40;96275.75;4980027;28;20215;-83
2022/12/19 01:38:36;;;;;;;19.80;9.97;;;;;;;0.92;91.21;96265.09;4931133;29;20223;-84
2022/12/19 01:41:02;;;;;;;17.93;9.90;;;;;;;0.92;90.95;96271.03;4978581;28;20185;-84
2022/12/19 01:43:29;;;;;;;18.47;10.23;;;;;;;1.00;91.10;96257.91;4979180;28;20200;-84
2022/12/19 01:45:56;;;;;;;16.33;9.27;;;;;;;1.02;90.90;96251.81;4962640;28;20217;-84
2022/12/19 01:48:34;;;;;;;17.33;9.27;;;;;;;1.05;91.03;96246.53;4963371;28;20263;-83
2022/12/19 01:51:11;;;;;;;16.00;9.53;;;;;;;1.05;91.16;96243.16;4961048;28;20180;-84
2022/12/19 01:53:39;;;;;;;14.87;8.83;;;;;;;1.09;91.41;96257.47;4946255;28;20238;-84
2022/12/19 01:56:06;;;;;;;15.63;8.70;;;;;;;1.12;90.99;96247.91;4962425;28;20217;-83
2022/12/19 01:58:31;;;;;;;13.27;7.97;;;;;;;1.19;91.06;96245.06;4962722;28;20219;-84
2022/12/19 02:00:56;;;;;;;14.10;8.43;;;;;;;1.26;90.54;96244.69;4962313;28;20188;-84
2022/12/19 02:03:30;;;;;;;12.47;7.00;;;;;;;1.38;89.72;96240.72;4980292;28;20193;-84
2022/12/19 02:05:57;;;;;;;10.07;6.10;;;;;;;1.53;87.71;96237.41;4944899;28;20290;-84
2022/12/19 02:08:23;;;;;;;8.80;5.30;;;;;;;1.64;86.38;96234.31;4961611;28;20196;-84
2022/12/19 02:10:49;;;;;;;7.83;5.33;;;;;;;1.71;85.41;96204.94;4962577;28;20192;-84
2022/12/19 02:13:14;;;;;;;9.00;5.23;;;;;;;1.86;84.80;96216.97;4961897;28;20188;-83
2022/12/19 02:16:22;;;;;;;5.90;3.97;;;;;;;1.86;82.38;96224.66;4961105;28;20220;-83
2022/12/19 02:19:20;;;;;;;7.63;4.53;;;;;;;2.04;81.16;96214.38;4927798;28;20264;-82
2022/12/19 02:22:11;;;;;;;8.67;5.80;;;;;;;2.02;79.73;96214.41;4973095;28;20649;-83
2022/12/19 02:24:53;;;;;;;9.33;5.87;;;;;;;1.92;80.21;96232.00;4960912;28;20230;-84
2022/12/19 02:27:45;;;;;;;8.20;5.07;;;;;;;1.91;78.84;96227.78;4978291;28;20288;-84
2022/12/19 02:30:13;;;;;;;9.67;5.87;;;;;;;1.88;78.86;96235.63;4978108;28;20677;-84
2022/12/19 02:32:58;;;;;;;7.30;4.60;;;;;;;1.92;79.43;96244.81;4960327;28;20172;-84
2022/12/19 02:35:29;;;;;;;7.97;5.30;;;;;;;1.74;80.98;96255.16;4974037;28;20204;-83
2022/12/19 02:38:01;;;;;;;9.77;5.37;;;;;;;1.85;79.94;96263.94;4976335;28;20595;-82
2022/12/19 02:40:30;;;;;;;8.60;5.80;;;;;;;1.93;79.92;96248.19;4960429;28;20272;-84
2022/12/19 02:42:57;;;;;;;8.97;6.17;;;;;;;1.85;80.40;96256.25;4977145;28;20580;-84
2022/12/19 02:45:24;;;;;;;8.37;5.53;;;;;;;1.85;80.55;96246.00;4976706;28;20255;-82
2022/12/19 02:47:50;;;;;;;10.30;5.37;;;;;;;1.90;79.96;96233.81;4977068;28;20188;-83
2022/12/19 02:50:16;;;;;;;6.97;4.73;;;;;;;1.93;79.95;96225.97;4959445;28;20192;-82
2022/12/19 02:52:43;;;;;;;6.80;4.17;;;;;;;1.96;79.33;96228.41;4959126;28;20184;-83
2022/12/19 02:55:12;;;;;;;5.40;4.13;;;;;;;2.06;78.73;96228.75;4973810;28;20208;-82
2022/12/19 02:57:50;;;;;;;5.47;3.70;;;;;;;2.04;78.21;96229.75;4958762;28;20176;-81
2022/12/19 03:00:20;;;;;;;5.67;3.87;;;;;;;2.19;78.00;96232.31;4975645;28;20204;-82
2022/12/19 03:02:51;;;;;;;8.03;3.57;;;;;;;2.21;77.48;96235.66;4975724;28;20224;-82
2022/12/19 03:05:35;;;;;;;4.80;3.80;;;;;;;2.20;77.91;96241.66;4975521;28;20200;-82
2022/12/19 03:08:18;;;;;;;5.57;3.60;;;;;;;2.14;78.47;96242.00;4975784;28;20259;-82
2022/12/19 03:10:48;;;;;;;5.33;4.33;;;;;;;2.17;78.26;96238.44;4956993;28;20271;-84
2022/12/19 03:13:19;;;;;;;7.57;4.17;;;;;;;2.01;79.33;96253.75;4955539;28;20453;-83
2022/12/19 03:15:45;;;;;;;8.97;5.20;;;;;;;1.98;79.51;96244.50;4957903;28;20220;-83
2022/12/19 03:18:10;;;;;;;8.57;4.90;;;;;;;1.93;80.82;96245.63;4975475;28;20191;-81
2022/12/19 03:20:54;;;;;;;9.40;5.10;;;;;;;2.01;80.86;96246.06;4957187;28;20612;-82
2022/12/19 03:23:20;;;;;;;7.83;5.47;;;;;;;1.95;81.54;96248.97;4974480;28;20212;-82
2022/12/19 03:25:48;;;;;;;6.87;4.40;;;;;;;1.81;82.83;96256.50;4973206;28;20303;-81
2022/12/19 03:28:25;;;;;;;10.37;4.93;;;;;;;1.80;83.67;96257.41;4956881;28;20188;-83
2022/12/19 03:30:51;;;;;;;8.70;4.67;;;;;;;1.78;83.68;96256.69;4955180;28;20271;-83
2022/12/19 03:33:17;;;;;;;6.60;4.90;;;;;;;1.73;84.34;96262.00;4974763;28;20598;-82
2022/12/19 03:35:45;;;;;;;7.83;4.90;;;;;;;1.73;84.79;96256.88;4966636;28;20752;-82
2022/12/19 03:38:11;;;;;;;8.20;4.83;;;;;;;1.90;84.25;96258.59;4995909;28;20188;-81
2022/12/19 03:40:38;;;;;;;9.00;6.40;;;;;;;1.80;85.06;96255.69;4981861;28;20183;-81
2022/12/19 03:43:08;;;;;;;7.73;5.30;;;;;;;1.88;85.14;96252.75;4964939;28;20189;-81
2022/12/19 03:45:58;;;;;;;9.30;5.70;;;;;;;1.84;85.71;96251.22;4959258;28;20204;-83
2022/12/19 03:48:26;;;;;;;10.73;6.10;;;;;;;1.83;86.51;96245.28;4973473;28;20191;-83
2022/12/19 03:51:30;;;;;;;11.87;6.30;;;;;;;1.83;86.98;96239.31;4973196;28;20239;-82
2022/12/19 03:54:19;;;;;;;8.70;4.83;;;;;;;1.94;87.09;96243.03;4969640;28;20200;-82
2022/12/19 03:56:53;;;;;;;6.37;4.63;;;;;;;2.01;87.70;96235.00;4961257;28;20224;-82
2022/12/19 03:59:32;;;;;;;6.90;4.33;;;;;;;1.97;88.16;96240.28;4972228;28;20594;-82
2022/12/19 04:01:58;;;;;;;7.73;4.47;;;;;;;2.12;87.68;96238.69;4946726;28;20195;-83
2022/12/19 04:04:24;;;;;;;7.50;4.67;;;;;;;2.17;88.05;96243.56;4956003;28;20200;-83
2022/12/19 04:06:50;;;;;;;7.30;5.13;;;;;;;2.20;87.00;96248.50;4955525;28;20220;-83
2022/12/19 04:09:17;;;;;;;7.47;5.27;;;;;;;2.09;88.80;96248.25;4955322;28;20191;-82
2022/12/19 04:11:47;;;;;;;8.20;5.50;;;;;;;2.09;87.99;96240.56;4972964;28;20190;-84
2022/12/19 04:14:21;;;;;;;8.10;5.10;;;;;;;2.06;88.86;96250.97;4955735;28;20543;-83
2022/12/19 04:17:12;;;;;;;7.50;5.37;;;;;;;2.11;88.80;96252.38;4952551;28;20271;-83
2022/12/19 04:20:14;;;;;;;8.73;5.80;;;;;;;2.14;88.75;96253.97;4972498;28;20184;-84
2022/12/19 04:22:50;;;;;;;8.60;5.63;;;;;;;2.10;88.82;96255.03;4969345;28;20703;-83
2022/12/19 04:25:18;;;;;;;9.73;6.27;;;;;;;2.05;89.42;96262.97;4953187;28;20208;-83
2022/12/19 04:27:51;;;;;;;12.07;6.00;;;;;;;1.98;89.44;96264.16;4952246;28;20248;-82
2022/12/19 04:30:17;;;;;;;9.60;6.43;;;;;;;1.94;90.55;96263.50;4938755;28;20216;-83
2022/12/19 04:32:43;;;;;;;12.40;7.40;;;;;;;2.01;89.81;96258.06;4955269;28;20653;-83
2022/12/19 04:35:08;;;;;;;11.23;7.17;;;;;;;1.93;90.51;96272.06;4953755;28;20239;-82
2022/12/19 04:37:34;;;;;;;14.97;8.33;;;;;;;1.95;90.32;96270.28;4971609;28;20675;-82
2022/12/19 04:39:59;;;;;;;15.90;9.10;;;;;;;1.92;90.95;96267.84;4954494;28;20553;-83
2022/12/19 04:42:24;;;;;;;14.37;9.87;;;;;;;1.81;92.51;96262.47;4971528;28;20560;-82
2022/12/19 04:44:50;;;;;;;14.10;9.17;;;;;;;1.84;92.47;96264.84;4971835;28;20195;-83
2022/12/19 04:47:15;;;;;;;14.03;9.80;;;;;;;1.94;92.14;96267.78;4973151;28;20189;-83
2022/12/19 04:49:40;;;;;;;15.00;9.33;;;;;;;1.84;93.01;96261.47;4956007;28;20199;-84
2022/12/19 04:52:06;;;;;;;12.77;9.10;;;;;;;1.93;92.24;96269.50;4956267;28;20268;-82
2022/12/19 04:54:32;;;;;;;14.13;8.27;;;;;;;1.89;92.19;96262.06;4973961;28;20191;-83
2022/12/19 04:56:57;;;;;;;15.63;8.37;;;;;;;1.91;92.40;96263.66;4937194;28;20585;-84
2022/12/19 04:59:22;;;;;;;12.53;8.80;;;;;;;1.79;93.28;96261.72;4957184;28;20192;-82
2022/12/19 05:01:48;;;;;;;12.97;7.83;;;;;;;1.88;92.55;96257.88;4975475;28;20192;-82
2022/12/19 05:04:13;;;;;;;13.30;8.90;;;;;;;1.78;93.07;96260.06;4958702;28;20196;-83
2022/12/19 05:06:38;;;;;;;12.50;8.77;;;;;;;1.86;93.04;96252.00;4957478;28;20220;-82
2022/12/19 05:09:04;;;;;;;12.83;8.40;;;;;;;1.75;93.61;96244.84;4974970;28;20231;-82
2022/12/19 05:11:29;;;;;;;13.53;8.53;;;;;;;1.80;93.62;96248.00;4974967;28;20219;-82
2022/12/19 05:13:54;;;;;;;15.23;9.00;;;;;;;1.76;93.96;96240.53;4957293;28;20184;-82
2022/12/19 05:16:20;;;;;;;14.43;8.73;;;;;;;1.76;94.65;96249.03;4957452;28;20271;-82
2022/12/19 05:18:45;;;;;;;13.20;9.13;;;;;;;1.76;94.00;96243.91;4976654;28;20188;-81
2022/12/19 05:21:10;;;;;;;12.53;8.97;;;;;;;1.75;93.93;96242.28;4976172;28;20181;-82
2022/12/19 05:23:36;;;;;;;14.80;8.50;;;;;;;1.77;94.80;96240.47;4976448;28;20678;-83
2022/12/19 05:26:03;;;;;;;14.90;8.70;;;;;;;1.80;95.03;96229.25;4956991;28;20215;-82
2022/12/19 05:28:29;;;;;;;13.87;9.13;;;;;;;1.78;95.38;96241.31;4975447;28;20185;-84
2022/12/19 05:31:16;;;;;;;15.60;8.80;;;;;;;1.83;94.64;96247.84;4975419;28;21020;-82
2022/12/19 05:33:42;;;;;;;17.30;9.80;;;;;;;1.90;93.73;96235.56;4957389;28;20180;-83
2022/12/19 05:36:08;;;;;;;19.47;11.33;;;;;;;1.78;94.41;96234.44;4976084;28;20244;-82
2022/12/19 05:38:34;;;;;;;20.77;11.50;;;;;;;1.80;93.87;96245.44;4958848;28;20220;-84
2022/12/19 05:40:59;;;;;;;20.00;12.30;;;;;;;1.81;93.26;96241.97;4958684;28;20707;-83
2022/12/19 05:43:25;;;;;;;16.73;10.37;;;;;;;1.86;93.40;96254.56;4958622;28;20215;-83
2022/12/19 05:45:50;;;;;;;19.33;11.73;;;;;;;1.83;93.45;96250.41;4975526;28;20680;-82
2022/12/19 05:48:16;;;;;;;18.63;11.27;;;;;;;1.85;93.13;96243.47;4976708;28;20185;-82
2022/12/19 05:50:46;;;;;;;20.50;11.80;;;;;;;1.91;92.32;96247.44;4976198;28;20235;-82
2022/12/19 05:53:11;;;;;;;21.73;12.87;;;;;;;1.84;92.83;96254.59;4956353;28;22007;-83
2022/12/19 05:55:36;;;;;;;20.10;12.07;;;;;;;1.80;93.00;96254.84;4974386;28;20243;-82
2022/12/19 05:58:02;;;;;;;20.37;11.87;;;;;;;1.82;93.36;96253.88;4939096;28;20223;-80
2022/12/19 06:00:27;;;;;;;17.43;11.77;;;;;;;1.90;92.94;96249.19;4975478;28;20719;-83
2022/12/19 06:02:53;;;;;;;20.90;11.87;;;;;;;1.83;93.35;96240.16;4958801;28;20255;-84
2022/12/19 06:05:18;;;;;;;18.43;11.40;;;;;;;1.80;93.74;96245.44;4957846;28;20568;-83
2022/12/19 06:07:44;;;;;;;18.33;11.30;;;;;;;1.89;93.25;96232.16;4954845;28;20255;-82
2022/12/19 06:10:09;;;;;;;19.40;11.30;;;;;;;1.87;92.98;96233.97;4941562;28;20201;-84
2022/12/19 06:12:34;;;;;;;19.37;12.40;;;;;;;1.89;92.88;96250.09;4940667;28;20286;-83
2022/12/19 06:14:59;;;;;;;21.80;10.93;;;;;;;1.82;93.67;96228.25;4957106;28;20289;-83
2022/12/19 06:17:25;;;;;;;20.67;10.83;;;;;;;1.86;94.02;96228.94;4958166;28;20223;-83
2022/12/19 06:19:50;;;;;;;23.43;11.73;;;;;;;1.95;93.43;96225.91;4958049;28;20235;-81
2022/12/19 06:22:15;;;;;;;19.97;11.80;;;;;;;1.92;93.81;96223.50;4957907;28;20207;-83
2022/12/19 06:24:41;;;;;;;19.87;11.10;;;;;;;2.10;93.30;96230.22;4957572;28;20212;-83
2022/12/19 06:27:06;;;;;;;19.37;11.53;;;;;;;2.13;93.30;96231.81;4973796;28;20624;-83
2022/12/19 06:29:31;;;;;;;20.87;12.17;;;;;;;1.97;94.40;96230.03;4975265;28;20189;-84
2022/12/19 06:31:56;;;;;;;18.93;11.60;;;;;;;2.05;93.99;96232.22;4957382;28;20231;-85
2022/12/19 06:34:22;;;;;;;18.30;11.00;;;;;;;2.09;93.76;96235.44;4976839;28;20189;-85
2022/12/19 06:36:47;;;;;;;18.63;11.10;;;;;;;2.09;94.30;96235.44;4954995;28;20729;-84
2022/12/19 06:39:14;;;;;;;20.43;11.60;;;;;;;2.17;93.61;96235.88;4940975;28;20193;-82
2022/12/19 06:44:23;;;;;;;17.43;9.90;;;;;;;2.21;95.32;96242.50;4958885;28;20238;-84
2022/12/19 06:46:48;;;;;;;17.27;10.20;;;;;;;2.30;95.73;96236.91;4940884;28;20220;-81
2022/12/19 06:49:13;;;;;;;17.37;11.03;;;;;;;2.37;95.65;96240.78;4937252;28;20201;-82
2022/12/19 06:51:39;;;;;;;16.70;9.90;;;;;;;2.34;95.81;96230.69;4958257;28;20699;-84
2022/12/19 06:54:04;;;;;;;16.67;10.60;;;;;;;2.45;94.61;96236.06;4975305;28;20185;-85
2022/12/19 06:56:37;;;;;;;20.27;10.63;;;;;;;2.44;94.69;96242.09;4974786;28;20224;-84
2022/12/19 06:59:04;;;;;;;17.80;10.63;;;;;;;2.42;95.38;96246.50;4931010;28;20189;-83
2022/12/19 07:02:00;;;;;;;18.43;10.30;;;;;;;2.40;95.53;96243.19;4956243;28;21070;-83
2022/12/19 07:04:38;;;;;;;17.03;11.03;;;;;;;2.44;95.24;96238.72;4948352;28;20243;-83
2022/12/19 07:07:04;;;;;;;16.57;10.50;;;;;;;2.45;95.98;96238.63;4953485;28;20297;-83
2022/12/19 07:09:30;;;;;;;15.30;10.20;;;;;;;2.45;96.96;96227.56;4956046;28;20193;-86
2022/12/19 07:11:55;;;;;;;17.37;10.37;;;;;;;2.53;96.28;96236.50;4957828;28;20486;-83
2022/12/19 07:14:20;;;;;;;17.03;10.40;;;;;;;2.67;95.49;96240.06;4953206;28;20195;-85
2022/12/19 07:16:47;;;;;;;15.40;9.83;;;;;;;2.68;95.52;96249.41;4955489;28;20212;-84
2022/12/19 07:19:12;;;;;;;14.90;9.03;;;;;;;2.76;95.21;96242.97;4946736;28;20189;-84
2022/12/19 07:21:39;;;;;;;19.67;11.10;;;;;;;2.70;95.25;96239.88;4930386;28;20200;-83
2022/12/19 07:24:05;;;;;;;18.43;11.20;;;;;;;2.66;95.18;96241.81;4955655;28;20219;-85
2022/12/19 07:26:31;;;;;;;17.60;9.67;;;;;;;2.66;95.09;96241.81;4974034;28;20220;-84
2022/12/19 07:28:57;;;;;;;16.37;10.07;;;;;;;2.66;95.67;96248.66;4956930;28;20593;-83
2022/12/19 07:31:23;;;;;;;18.40;9.87;;;;;;;2.71;94.79;96251.81;4954729;28;20279;-87
2022/12/19 07:33:48;;;;;;;16.13;9.97;;;;;;;2.74;95.79;96249.06;4974801;28;20188;-86
2022/12/19 07:36:14;;;;;;;15.30;9.47;;;;;;;2.69;96.58;96245.94;4956069;28;20571;-87
2022/12/19 07:38:39;;;;;;;16.27;9.90;;;;;;;2.76;95.40;96252.41;4955421;28;20196;-86
2022/12/19 07:41:04;;;;;;;14.77;9.53;;;;;;;2.76;96.03;96254.97;4953216;28;20654;-85
2022/12/19 07:43:30;;;;;;;16.33;10.20;;;;;;;2.82;95.44;96259.72;4939547;28;20217;-84
2022/12/19 07:45:55;;;;;;;19.67;10.37;;;;;;;2.89;94.86;96257.66;4954351;28;20244;-86
2022/12/19 07:48:21;;;;;;;16.63;10.57;;;;;;;2.89;94.73;96271.31;4954281;28;20188;-85
2022/12/19 07:50:47;;;;;;;17.47;9.57;;;;;;;2.76;94.98;96271.16;4932762;28;20185;-85
2022/12/19 07:53:13;;;;;;;17.90;10.90;;;;;;;2.71;94.85;96277.44;4974072;28;20171;-85
2022/12/19 07:55:38;;;;;;;16.10;9.60;;;;;;;2.73;95.82;96265.34;4958970;28;20220;-85
2022/12/19 07:58:04;;;;;;;18.60;10.03;;;;;;;2.82;94.90;96273.38;4996748;28;20212;-86
2022/12/19 08:00:30;;;;;;;14.87;9.23;;;;;;;2.93;94.01;96265.13;4964542;28;20188;-85
2022/12/19 08:02:57;;;;;;;16.00;9.00;;;;;;;3.06;94.42;96278.09;4937877;28;20232;-86
2022/12/19 08:05:23;;;;;;;14.70;9.00;;;;;;;3.08;94.34;96278.84;4953177;28;20217;-86
2022/12/19 08:07:48;;;;;;;14.07;9.57;;;;;;;3.05;95.31;96279.84;4935739;28;20562;-85
2022/12/19 08:10:14;;;;;;;15.37;9.30;;;;;;;3.07;94.91;96282.31;4929860;28;20657;-85
2022/12/19 08:12:40;;;;;;;12.70;8.30;;;;;;;3.21;94.70;96281.56;4953666;28;20252;-86
2022/12/19 08:15:05;;;;;;;13.60;8.13;;;;;;;3.26;93.38;96277.81;4945316;28;20236;-85
2022/12/19 08:17:31;;;;;;;11.83;7.97;;;;;;;3.22;95.28;96260.94;4953134;28;20220;-87
2022/12/19 08:19:56;;;;;;;12.53;8.00;;;;;;;3.42;93.49;96270.09;4939368;28;20640;-86
2022/12/19 08:22:22;;;;;;;13.63;7.53;;;;;;;3.46;93.81;96274.16;4957030;28;20196;-86
2022/12/19 08:24:47;;;;;;;11.40;7.40;;;;;;;3.35;94.21;96281.63;4960656;28;20725;-86
2022/12/19 08:27:20;;;;;;;13.47;7.97;;;;;;;3.47;93.41;96275.81;4956910;28;20251;-87
2022/12/19 08:29:47;;;;;;;12.50;7.97;;;;;;;3.48;93.28;96274.06;4946691;28;20188;-86
2022/12/19 08:32:14;;;;;;;10.10;7.20;;;;;;;3.69;91.71;96271.09;4940039;28;20189;-86
2022/12/19 08:37:47;;;;;;;10.13;7.90;;;;;;;3.75;91.88;96263.97;5038315;23;20703;-86
2022/12/19 08:40:12;;;;;;;11.97;7.37;;;;;;;3.93;91.12;96263.72;4956355;28;20199;-80
2022/12/19 08:42:38;;;;;;;13.43;7.23;;;;;;;3.80;90.23;96269.66;4989459;28;20184;-85
2022/12/19 08:45:04;;;;;;;10.63;7.27;;;;;;;3.99;90.31;96262.53;4991132;28;20191;-82
2022/12/19 08:47:29;;;;;;;14.07;7.83;;;;;;;3.87;90.96;96268.38;4966657;28;20196;-83
2022/12/19 08:49:55;;;;;;;12.07;7.53;;;;;;;4.04;90.06;96259.69;4956113;28;20189;-86
2022/12/19 08:52:20;;;;;;;11.57;7.50;;;;;;;4.04;89.35;96257.13;4973489;28;20191;-83
2022/12/19 08:54:46;;;;;;;10.37;7.50;;;;;;;4.10;90.29;96255.03;4951618;28;20177;-83
2022/12/19 08:57:11;;;;;;;11.00;6.80;;;;;;;4.23;89.59;96261.06;4967611;28;20243;-81
2022/12/19 08:59:36;;;;;;;11.57;7.00;;;;;;;4.37;88.74;96256.88;4963975;28;20226;-84
2022/12/19 09:02:02;;;;;;;13.87;7.20;;;;;;;4.39;87.95;96252.44;4945535;28;20184;-82
2022/12/19 09:04:27;;;;;;;7.90;5.43;;;;;;;4.43;88.89;96254.75;4945407;28;20208;-83
2022/12/19 09:06:53;;;;;;;8.13;5.23;;;;;;;4.79;86.96;96258.56;4965639;28;20218;-85
2022/12/19 09:09:18;;;;;;;9.17;5.33;;;;;;;4.93;86.64;96248.22;4967196;28;20199;-82
2022/12/19 09:11:43;;;;;;;10.07;5.53;;;;;;;5.11;85.42;96249.63;4964957;28;20188;-83
2022/12/19 09:14:09;;;;;;;8.20;5.50;;;;;;;5.18;84.18;96246.69;4965288;28;20219;-85
2022/12/19 09:16:34;;;;;;;9.10;5.87;;;;;;;5.24;84.03;96244.56;4951055;28;20211;-83
2022/12/19 09:19:02;;;;;;;11.10;5.83;;;;;;;5.21;84.34;96252.47;4963094;28;20215;-85
2022/12/19 09:21:28;;;;;;;10.23;6.07;;;;;;;5.25;84.00;96251.34;4954225;28;20225;-85
2022/12/19 09:23:55;;;;;;;7.90;5.20;;;;;;;5.25;83.22;96251.34;4969249;28;20207;-84
2022/12/19 09:26:22;;;;;;;6.87;4.97;;;;;;;5.33;83.09;96249.13;4984441;28;20207;-82
2022/12/19 09:28:49;;;;;;;8.03;5.50;;;;;;;5.28;83.85;96246.00;4952843;28;20696;-85
2022/12/19 09:31:17;;;;;;;7.87;5.43;;;;;;;5.20;83.97;96243.09;4969936;28;20192;-83
2022/12/19 09:33:42;;;;;;;10.07;5.17;;;;;;;5.24;84.64;96241.16;4968505;28;20186;-84
2022/12/19 09:36:12;;;;;;;8.00;5.00;;;;;;;5.42;83.44;96249.44;4998304;28;20593;-83
2022/12/19 09:38:37;;;;;;;7.90;5.13;;;;;;;5.50;82.76;96252.34;4965629;28;20214;-84
2022/12/19 09:41:30;;;;;;;9.07;6.23;;;;;;;5.49;82.84;96248.97;4948870;28;20221;-83
2022/12/19 09:44:01;;;;;;;7.90;5.40;;;;;;;5.52;82.55;96247.91;4962955;28;20212;-83
2022/12/19 09:46:51;;;;;;;6.83;5.80;;;;;;;5.74;81.71;96247.34;4977027;28;20212;-84
2022/12/19 09:49:33;;;;;;;8.87;5.60;;;;;;;5.72;81.10;96242.28;4964540;28;20196;-83
2022/12/19 09:52:03;;;;;;;6.47;5.03;;;;;;;5.88;80.88;96245.50;4967812;28;20199;-83
2022/12/19 09:54:37;;;;;;;7.60;5.03;;;;;;;6.07;79.83;96249.47;4976039;28;20205;-82
2022/12/19 09:57:09;;;;;;;7.30;4.37;;;;;;;6.11;79.35;96243.19;4971664;28;20620;-82
2022/12/19 09:59:40;;;;;;;7.27;5.30;;;;;;;5.83;80.97;96244.16;4966183;28;20202;-83
2022/12/19 10:02:23;;;;;;;7.07;5.40;;;;;;;5.93;80.31;96238.34;4996375;28;20321;-84
2022/12/19 10:04:52;;;;;;;10.67;6.37;;;;;;;5.96;80.96;96232.97;4962662;28;20212;-83
2022/12/19 10:07:19;;;;;;;7.50;6.07;;;;;;;5.88;80.64;96230.03;4962934;28;20222;-84
2022/12/19 10:09:44;;;;;;;7.53;5.47;;;;;;;5.99;80.12;96224.19;4962655;28;20262;-83
2022/12/19 10:12:33;;;;;;;7.47;5.77;;;;;;;6.23;79.74;96226.88;4962106;28;20195;-83
2022/12/19 10:15:16;;;;;;;6.23;4.90;;;;;;;6.23;79.31;96227.69;4994735;28;20206;-84
2022/12/19 10:18:08;;;;;;;10.30;6.00;;;;;;;6.31;78.96;96227.19;4952763;28;20188;-85
2022/12/19 10:20:36;;;;;;;6.37;4.93;;;;;;;6.32;78.18;96233.16;4975435;28;20271;-84
2022/12/19 10:23:32;;;;;;;9.03;6.20;;;;;;;6.28;77.84;96219.66;4957307;28;20213;-84
2022/12/19 10:26:19;;;;;;;6.37;4.83;;;;;;;6.39;77.86;96216.34;4977661;28;21003;-85
2022/12/19 10:28:59;;;;;;;6.63;4.73;;;;;;;6.25;78.31;96217.28;4961535;28;20213;-85
2022/12/19 10:31:50;;;;;;;6.97;4.87;;;;;;;6.30;78.17;96209.22;4981569;28;20639;-85
2022/12/19 10:34:24;;;;;;;7.53;5.03;;;;;;;6.16;78.51;96220.47;4971564;28;20565;-85
2022/12/19 10:36:57;;;;;;;7.80;4.63;;;;;;;6.31;78.52;96214.28;4959633;28;20224;-83
2022/12/19 10:39:45;;;;;;;5.77;4.53;;;;;;;6.02;79.51;96218.84;4947780;28;20208;-84
2022/12/19 10:42:20;;;;;;;8.30;5.03;;;;;;;6.01;79.62;96214.63;4983901;28;20200;-85
2022/12/19 10:44:46;;;;;;;6.37;4.90;;;;;;;6.17;79.29;96204.06;4960915;28;20711;-85
2022/12/19 10:47:16;;;;;;;8.57;4.90;;;;;;;6.00;79.97;96199.22;4969526;28;20219;-83
2022/12/19 10:49:41;;;;;;;7.30;4.60;;;;;;;6.03;80.43;96189.56;4986367;28;20715;-84
2022/12/19 10:52:08;;;;;;;8.23;4.70;;;;;;;6.19;79.23;96187.59;4997606;28;20195;-84
2022/12/19 10:54:36;;;;;;;8.10;4.87;;;;;;;6.09;79.62;96175.41;4951694;28;20795;-86
2022/12/19 10:57:20;;;;;;;6.97;4.77;;;;;;;6.11;79.65;96183.88;4967095;28;20584;-85
2022/12/19 10:59:55;;;;;;;7.33;4.67;;;;;;;6.16;79.95;96180.03;4983204;28;20195;-83
2022/12/19 11:02:41;;;;;;;8.00;5.07;;;;;;;6.11;79.71;96184.69;4947814;28;20191;-84
2022/12/19 11:05:24;;;;;;;6.33;4.93;;;;;;;6.30;79.43;96186.03;4962931;28;20242;-84
2022/12/19 11:08:05;;;;;;;6.70;4.93;;;;;;;6.51;78.41;96181.94;4974414;28;20235;-84
2022/12/19 11:10:42;;;;;;;5.70;4.43;;;;;;;6.43;78.86;96185.03;4957864;28;20303;-85
2022/12/19 11:13:28;;;;;;;6.40;4.60;;;;;;;6.73;77.61;96178.69;4975989;28;20184;-84
2022/12/19 11:15:56;;;;;;;5.27;4.13;;;;;;;6.42;78.60;96173.09;4961604;28;20215;-85
2022/12/19 11:18:22;;;;;;;6.10;3.93;;;;;;;6.52;77.96;96174.09;4971873;28;20188;-84
2022/12/19 11:20:55;;;;;;;8.33;5.30;;;;;;;6.66;77.05;96174.88;4963634;28;20191;-85
2022/12/19 11:23:22;;;;;;;7.73;4.60;;;;;;;6.44;78.04;96166.06;4970858;28;20616;-84
2022/12/19 11:25:56;;;;;;;6.50;4.67;;;;;;;6.60;77.93;96164.97;4970416;28;20214;-85
2022/12/19 11:28:26;;;;;;;6.63;4.73;;;;;;;6.39;79.15;96149.25;4951076;28;20292;-84
2022/12/19 11:31:16;;;;;;;6.17;4.40;;;;;;;6.40;78.95;96153.50;4965306;28;20195;-85
2022/12/19 11:33:45;;;;;;;7.40;5.37;;;;;;;6.56;78.28;96153.25;4964556;28;20200;-86
2022/12/19 11:36:27;;;;;;;6.97;5.40;;;;;;;6.54;77.88;96150.78;4958627;28;20212;-84
2022/12/19 11:38:53;;;;;;;5.27;4.63;;;;;;;6.36;78.61;96149.47;4945711;28;20188;-85
2022/12/19 11:41:41;;;;;;;6.87;4.93;;;;;;;6.42;78.80;96144.69;4967794;28;20235;-83
2022/12/19 11:44:12;;;;;;;8.27;5.83;;;;;;;6.47;78.44;96131.50;4966139;28;20235;-84
2022/12/19 11:46:43;;;;;;;6.53;4.67;;;;;;;6.52;78.07;96122.47;4968886;28;20227;-83
2022/12/19 11:49:25;;;;;;;5.90;4.90;;;;;;;6.36;78.66;96132.25;4968409;28;20291;-82
2022/12/19 11:52:01;;;;;;;7.00;5.00;;;;;;;6.36;79.08;96123.66;4964843;28;20195;-84
2022/12/19 11:54:33;;;;;;;7.63;5.40;;;;;;;6.52;78.76;96134.56;4963746;28;20211;-82